Time;durP1;ratioP1;P1;durP2;ratioP2;P2;SDS_P1;SDS_P2;PMS_P1;PMS_P2;Temp;Humidity;BMP_temperature;BMP_pressure;BME280_temperature;BME280_humidity;BME280_pressure;Samples;Min_cycle;Max_cycle;Signal;HPM_P1;HPM_P2
2023/08/30 00:02:15;;;;;;;7.40;4.32;;;;;;;13.89;81.94;97555.03;4891343;29;20052;-69
2023/08/30 00:04:42;;;;;;;5.55;3.60;;;;;;;13.90;81.66;97551.25;4891629;29;20021;-69
2023/08/30 00:07:07;;;;;;;4.28;3.28;;;;;;;13.92;81.50;97554.50;4891638;29;20503;-69
2023/08/30 00:09:32;;;;;;;6.55;4.93;;;;;;;13.93;81.94;97555.31;4891538;29;20059;-68
2023/08/30 00:11:58;;;;;;;5.32;3.88;;;;;;;13.92;81.43;97551.78;4891345;29;20048;-68
2023/08/30 00:14:23;;;;;;;8.20;4.82;;;;;;;13.92;81.68;97554.50;4891328;29;20021;-69
2023/08/30 00:16:49;;;;;;;4.65;4.15;;;;;;;13.89;81.99;97555.03;4891350;29;20037;-71
2023/08/30 00:19:14;;;;;;;4.55;3.50;;;;;;;13.88;82.14;97552.63;4877060;29;20369;-69
2023/08/30 00:21:39;;;;;;;6.68;4.93;;;;;;;13.88;82.01;97561.56;4876850;29;20120;-70
2023/08/30 00:24:05;;;;;;;5.95;4.85;;;;;;;13.86;82.31;97563.75;4875714;29;20029;-69
2023/08/30 00:26:31;;;;;;;5.95;4.70;;;;;;;13.81;82.25;97556.47;4875868;29;20041;-69
2023/08/30 00:28:57;;;;;;;7.20;3.70;;;;;;;13.82;82.03;97558.06;4864709;29;20085;-69
2023/08/30 00:31:23;;;;;;;6.88;3.40;;;;;;;13.83;82.10;97562.41;4891182;29;20045;-68
2023/08/30 00:33:49;;;;;;;4.28;3.78;;;;;;;13.76;81.56;97542.97;4874598;29;20496;-68
2023/08/30 00:36:14;;;;;;;5.85;4.53;;;;;;;13.80;81.50;97552.13;4870623;29;20097;-68
2023/08/30 00:38:39;;;;;;;6.25;5.75;;;;;;;13.75;81.44;97554.88;4879539;29;20059;-69
2023/08/30 00:41:05;;;;;;;3.92;3.53;;;;;;;13.61;81.52;97536.81;4901388;29;20775;-68
2023/08/30 00:43:30;;;;;;;4.68;3.33;;;;;;;13.68;81.24;97548.94;4882238;29;20029;-70
2023/08/30 00:45:56;;;;;;;6.38;3.90;;;;;;;13.66;81.49;97545.72;4894932;29;20040;-69
2023/08/30 00:48:21;;;;;;;5.13;4.35;;;;;;;13.65;81.62;97549.50;4894754;29;20021;-69
2023/08/30 00:50:47;;;;;;;5.65;5.10;;;;;;;13.56;81.62;97540.38;4894630;29;20056;-69
2023/08/30 00:53:13;;;;;;;12.35;6.30;;;;;;;13.48;81.94;97543.66;4878623;29;20021;-68
2023/08/30 00:55:39;;;;;;;8.13;5.72;;;;;;;13.40;81.96;97538.81;4893881;29;20037;-69
2023/08/30 00:58:04;;;;;;;8.05;4.90;;;;;;;13.46;82.42;97543.16;4878891;29;20025;-72
2023/08/30 01:00:31;;;;;;;3.97;3.53;;;;;;;13.45;82.50;97540.69;4894339;29;20041;-69
2023/08/30 01:02:56;;;;;;;5.95;3.95;;;;;;;13.54;81.95;97542.53;4878579;29;20029;-68
2023/08/30 01:05:22;;;;;;;4.78;3.78;;;;;;;13.44;82.13;97526.34;4894383;29;20712;-68
2023/08/30 01:07:49;;;;;;;4.22;3.90;;;;;;;13.60;82.03;97540.63;4879919;29;20372;-68
2023/08/30 01:10:14;;;;;;;4.88;4.00;;;;;;;13.59;82.37;97539.81;4880007;29;20056;-67
2023/08/30 01:12:43;;;;;;;5.40;4.65;;;;;;;13.51;81.98;97534.97;4877699;29;20051;-68
2023/08/30 01:15:12;;;;;;;5.85;5.20;;;;;;;13.61;82.04;97548.44;4875550;29;20113;-68
2023/08/30 01:17:40;;;;;;;7.97;5.45;;;;;;;13.58;82.04;97546.28;4875844;29;20032;-68
2023/08/30 01:20:16;;;;;;;7.63;5.82;;;;;;;13.58;82.39;97549.00;4878648;29;20092;-68
2023/08/30 01:23:00;;;;;;;8.77;7.00;;;;;;;13.50;82.60;97552.31;4864050;29;20400;-68
2023/08/30 01:25:43;;;;;;;8.15;6.65;;;;;;;13.47;82.83;97552.84;4878568;29;20037;-68
2023/08/30 01:28:09;;;;;;;4.93;4.38;;;;;;;13.46;82.44;97545.84;4878618;29;20093;-68
2023/08/30 01:30:38;;;;;;;4.32;3.92;;;;;;;13.46;82.15;97534.22;4893963;29;20040;-68
2023/08/30 01:33:04;;;;;;;6.32;4.18;;;;;;;13.41;82.19;97526.94;4878053;29;20716;-69
2023/08/30 01:35:32;;;;;;;4.63;3.90;;;;;;;13.49;82.14;97534.44;4878302;29;20466;-69
2023/08/30 01:38:00;;;;;;;3.90;3.60;;;;;;;13.49;82.51;97539.84;4893814;29;20124;-68
2023/08/30 01:40:27;;;;;;;4.20;3.90;;;;;;;13.48;81.92;97549.06;4878293;29;20032;-68
2023/08/30 01:42:53;;;;;;;5.22;4.18;;;;;;;13.40;82.58;97546.94;4893516;29;20041;-69
2023/08/30 01:45:19;;;;;;;3.95;3.65;;;;;;;13.46;82.30;97547.75;4862050;29;20025;-69
2023/08/30 01:47:45;;;;;;;7.30;5.30;;;;;;;13.47;82.30;97550.16;4893758;29;20041;-68
2023/08/30 01:50:11;;;;;;;9.32;4.88;;;;;;;13.35;81.84;97538.84;4867604;29;20029;-67
2023/08/30 01:52:37;;;;;;;4.63;4.22;;;;;;;13.34;82.26;97537.25;4877829;29;20112;-70
2023/08/30 01:55:03;;;;;;;5.72;4.00;;;;;;;13.35;82.23;97549.66;4878016;29;20373;-67
2023/08/30 01:57:30;;;;;;;7.22;5.18;;;;;;;13.37;81.91;97552.91;4878019;29;20066;-72
2023/08/30 01:59:55;;;;;;;6.15;5.53;;;;;;;13.26;82.19;97540.53;4878180;29;20033;-69
2023/08/30 02:02:21;;;;;;;7.10;5.10;;;;;;;13.32;82.35;97552.94;4879245;29;20037;-71
2023/08/30 02:04:46;;;;;;;7.28;5.05;;;;;;;13.25;82.55;97555.13;4874773;29;20040;-71
2023/08/30 02:07:20;;;;;;;7.05;5.57;;;;;;;13.21;82.34;97564.88;4885235;29;20093;-70
2023/08/30 02:10:00;;;;;;;5.32;4.50;;;;;;;13.15;82.51;97571.41;4880725;29;20696;-69
2023/08/30 02:12:40;;;;;;;7.30;6.38;;;;;;;13.11;82.95;97564.94;4880906;29;20037;-70
2023/08/30 02:15:07;;;;;;;7.47;3.90;;;;;;;13.02;82.76;97556.53;4884345;29;20061;-69
2023/08/30 02:17:33;;;;;;;5.10;3.95;;;;;;;13.09;83.21;97561.69;4887141;29;20036;-72
2023/08/30 02:19:58;;;;;;;5.05;3.67;;;;;;;13.21;82.77;97564.88;4883635;29;20051;-69
2023/08/30 02:22:23;;;;;;;8.02;3.40;;;;;;;13.26;83.52;97567.56;4868266;29;20025;-69
2023/08/30 02:24:49;;;;;;;5.97;3.65;;;;;;;13.27;83.63;97563.78;4878455;29;20399;-70
2023/08/30 02:27:14;;;;;;;5.40;3.50;;;;;;;13.26;82.96;97558.63;4877358;29;20797;-69
2023/08/30 02:29:39;;;;;;;4.53;3.97;;;;;;;13.21;82.96;97553.28;4892896;29;20041;-70
2023/08/30 02:32:06;;;;;;;4.22;3.45;;;;;;;13.14;82.92;97548.13;4876988;29;20033;-70
2023/08/30 02:34:31;;;;;;;7.38;4.13;;;;;;;13.08;83.35;97550.06;4878360;29;20049;-70
2023/08/30 02:36:57;;;;;;;5.10;4.60;;;;;;;13.23;83.16;97564.63;4864738;29;20021;-71
2023/08/30 02:39:23;;;;;;;5.00;4.03;;;;;;;13.22;83.48;97558.38;4892800;29;20037;-69
2023/08/30 02:41:49;;;;;;;4.40;4.00;;;;;;;13.02;82.92;97517.91;4876799;29;20032;-70
2023/08/30 02:44:14;;;;;;;5.15;4.03;;;;;;;13.19;83.42;97545.41;4892783;29;20052;-70
2023/08/30 02:46:41;;;;;;;5.40;4.38;;;;;;;13.26;83.31;97551.34;4877435;29;20423;-69
2023/08/30 02:49:07;;;;;;;7.55;5.00;;;;;;;13.24;82.88;97555.41;4877311;29;20037;-68
2023/08/30 02:51:32;;;;;;;6.82;4.65;;;;;;;13.22;83.05;97544.06;4889139;29;20025;-68
2023/08/30 02:53:58;;;;;;;4.50;4.10;;;;;;;13.20;83.21;97536.22;4878098;29;20073;-70
2023/08/30 02:56:25;;;;;;;7.22;3.85;;;;;;;13.22;82.33;97541.34;4877555;29;20033;-72
2023/08/30 02:58:50;;;;;;;6.38;3.95;;;;;;;13.20;82.34;97541.63;4861849;29;20101;-70
2023/08/30 03:01:16;;;;;;;5.85;4.88;;;;;;;13.11;82.27;97527.09;4875347;29;20041;-71
2023/08/30 03:03:41;;;;;;;7.82;6.07;;;;;;;13.04;82.75;97527.34;4881977;29;20116;-73
2023/08/30 03:06:07;;;;;;;6.30;4.90;;;;;;;12.95;81.87;97517.38;4876840;29;20037;-69
2023/08/30 03:08:32;;;;;;;6.22;5.32;;;;;;;12.94;81.70;97521.97;4868728;29;20132;-70
2023/08/30 03:11:11;;;;;;;5.63;5.13;;;;;;;12.86;81.95;97514.41;4887869;29;20052;-70
2023/08/30 03:13:42;;;;;;;7.60;4.32;;;;;;;12.92;82.44;97528.72;4873590;29;20507;-71
2023/08/30 03:16:14;;;;;;;4.60;4.20;;;;;;;12.91;81.71;97537.91;4890079;29;20040;-73
2023/08/30 03:18:40;;;;;;;9.35;4.75;;;;;;;12.89;81.79;97540.09;4877057;29;20123;-72
2023/08/30 03:21:06;;;;;;;4.53;3.80;;;;;;;12.91;82.12;97533.31;4876645;29;20146;-72
2023/08/30 03:23:33;;;;;;;6.22;3.78;;;;;;;12.82;81.96;97513.38;4861030;29;20036;-73
2023/08/30 03:25:59;;;;;;;4.75;3.67;;;;;;;12.93;81.65;97524.94;4892003;29;20033;-71
2023/08/30 03:28:24;;;;;;;6.75;3.60;;;;;;;12.67;82.18;97488.28;4876660;29;20041;-73
2023/08/30 03:30:50;;;;;;;5.72;4.65;;;;;;;12.87;81.73;97526.03;4873219;29;20033;-73
2023/08/30 03:33:15;;;;;;;7.18;4.47;;;;;;;12.82;81.90;97528.75;4868211;29;20085;-72
2023/08/30 03:35:42;;;;;;;6.10;5.05;;;;;;;12.66;81.35;97524.47;4876113;29;20044;-73
2023/08/30 03:38:07;;;;;;;5.60;4.38;;;;;;;12.64;82.45;97527.47;4876381;29;20717;-73
2023/08/30 03:40:33;;;;;;;5.50;3.95;;;;;;;12.55;81.92;97522.88;4891783;29;20056;-72
2023/08/30 03:42:58;;;;;;;5.38;4.40;;;;;;;12.55;82.18;97522.88;4876080;29;20110;-72
2023/08/30 03:45:23;;;;;;;4.07;3.72;;;;;;;12.61;82.53;97538.81;4857901;29;20052;-71
2023/08/30 03:47:49;;;;;;;4.55;4.15;;;;;;;12.63;82.11;97546.63;4868786;29;20119;-72
2023/08/30 03:50:14;;;;;;;4.70;4.13;;;;;;;12.67;82.13;97542.31;4882788;29;20091;-72
2023/08/30 03:52:40;;;;;;;4.95;4.00;;;;;;;12.68;82.49;97535.81;4868383;29;20125;-73
2023/08/30 03:55:06;;;;;;;4.72;4.22;;;;;;;12.63;82.55;97533.13;4876059;29;20412;-73
2023/08/30 03:57:31;;;;;;;5.75;4.38;;;;;;;12.57;81.85;97528.81;4876231;29;20408;-73
2023/08/30 03:59:56;;;;;;;5.03;4.63;;;;;;;12.67;81.96;97550.44;4873035;29;20029;-73
2023/08/30 04:02:22;;;;;;;5.03;4.53;;;;;;;12.64;81.73;97542.84;4867960;29;20567;-74
2023/08/30 04:04:50;;;;;;;6.82;5.53;;;;;;;12.38;81.75;97512.38;4872749;29;20033;-72
2023/08/30 04:07:16;;;;;;;4.70;4.30;;;;;;;12.52;81.64;97539.63;4868524;29;20128;-73
2023/08/30 04:09:41;;;;;;;3.75;3.53;;;;;;;12.48;81.56;97540.16;4876614;29;20455;-72
2023/08/30 04:12:06;;;;;;;3.85;3.25;;;;;;;12.43;82.26;97537.50;4889586;29;20033;-70
2023/08/30 04:14:32;;;;;;;3.95;3.58;;;;;;;12.42;81.75;97540.44;4879452;29;20017;-72
2023/08/30 04:16:58;;;;;;;4.65;4.20;;;;;;;12.48;81.86;97561.78;4879383;29;20084;-68
2023/08/30 04:19:23;;;;;;;5.15;4.75;;;;;;;12.50;81.84;97558.81;4880836;29;20025;-73
2023/08/30 04:21:48;;;;;;;4.78;4.38;;;;;;;12.45;81.53;97556.94;4879242;29;20097;-71
2023/08/30 04:24:14;;;;;;;6.40;4.57;;;;;;;12.33;82.07;97548.31;4894883;29;20025;-71
2023/08/30 04:26:40;;;;;;;4.70;4.30;;;;;;;12.39;82.09;97541.81;4895112;29;20037;-71
2023/08/30 04:29:05;;;;;;;4.95;4.28;;;;;;;12.39;81.53;97541.81;4879614;29;20036;-71
2023/08/30 04:31:31;;;;;;;4.72;4.32;;;;;;;12.21;81.17;97517.25;4879324;29;20041;-72
2023/08/30 04:33:56;;;;;;;5.70;5.20;;;;;;;12.35;81.72;97546.13;4878885;29;20033;-72
2023/08/30 04:36:22;;;;;;;5.47;4.82;;;;;;;12.39;81.57;97563.41;4895248;29;20132;-69
2023/08/30 04:38:48;;;;;;;5.95;4.30;;;;;;;12.39;81.93;97560.72;4879219;29;20057;-72
2023/08/30 04:41:13;;;;;;;4.30;3.90;;;;;;;12.30;81.61;97548.84;4879349;29;20712;-74
2023/08/30 04:43:39;;;;;;;3.88;3.53;;;;;;;12.31;81.55;97550.47;4879144;29;20033;-71
2023/08/30 04:46:04;;;;;;;4.35;3.88;;;;;;;12.45;82.21;97573.13;4876144;29;20049;-74
2023/08/30 04:48:30;;;;;;;6.68;5.93;;;;;;;12.34;82.09;97549.94;4891083;29;20025;-74
2023/08/30 04:51:05;;;;;;;6.65;6.00;;;;;;;12.46;81.49;97561.25;4904466;29;20036;-74
2023/08/30 04:53:30;;;;;;;6.00;5.50;;;;;;;12.40;81.67;97543.44;4880421;29;20068;-73
2023/08/30 04:55:57;;;;;;;5.28;4.80;;;;;;;12.56;82.31;97554.22;4876051;29;20034;-74
2023/08/30 04:58:23;;;;;;;6.35;5.28;;;;;;;12.63;82.15;97557.44;4894753;29;20041;-73
2023/08/30 05:00:48;;;;;;;5.00;4.50;;;;;;;12.63;82.50;97557.44;4903719;29;20048;-72
2023/08/30 05:03:13;;;;;;;5.95;5.38;;;;;;;12.71;83.03;97560.41;4889755;29;20168;-73
2023/08/30 05:05:39;;;;;;;6.38;5.07;;;;;;;12.71;82.75;97556.91;4861606;29;20081;-74
2023/08/30 05:08:05;;;;;;;7.78;6.45;;;;;;;12.86;83.28;97556.88;4875833;29;20037;-72
2023/08/30 05:10:32;;;;;;;10.00;8.25;;;;;;;12.90;83.17;97541.72;4860246;29;20396;-73
2023/08/30 05:12:57;;;;;;;21.92;12.50;;;;;;;12.99;83.67;97546.28;4875347;29;20041;-74
2023/08/30 05:15:23;;;;;;;24.10;13.15;;;;;;;12.96;84.43;97541.41;4873197;29;20028;-73
2023/08/30 05:17:48;;;;;;;57.88;20.52;;;;;;;13.14;85.10;97551.66;4863042;29;20412;-74
2023/08/30 05:20:14;;;;;;;93.15;26.17;;;;;;;13.21;85.02;97547.84;4893203;29;20025;-74
2023/08/30 05:22:39;;;;;;;90.30;28.23;;;;;;;13.28;85.15;97549.16;4877644;29;20041;-74
2023/08/30 05:25:05;;;;;;;123.75;32.65;;;;;;;13.18;86.46;97533.00;4877054;29;20075;-73
2023/08/30 05:27:30;;;;;;;39.80;22.38;;;;;;;13.37;86.63;97552.91;4877884;29;20076;-73
2023/08/30 05:29:56;;;;;;;56.53;25.88;;;;;;;13.49;86.67;97539.84;4861990;29;20480;-73
2023/08/30 05:32:22;;;;;;;65.13;28.65;;;;;;;13.34;87.21;97502.09;4893007;29;20059;-73
2023/08/30 05:35:07;;;;;;;65.05;29.80;;;;;;;13.60;86.82;97546.84;4889873;29;20506;-73
2023/08/30 05:37:48;;;;;;;60.40;30.20;;;;;;;13.60;87.37;97536.03;4878163;29;20500;-73
2023/08/30 05:40:20;;;;;;;78.32;31.92;;;;;;;13.66;87.98;97545.72;4863617;29;20559;-73
2023/08/30 05:42:45;;;;;;;78.25;31.13;;;;;;;13.62;87.83;97528.44;4862520;29;20041;-73
2023/08/30 05:45:11;;;;;;;96.30;36.40;;;;;;;13.77;87.93;97549.97;4878416;29;20048;-73
2023/08/30 05:47:36;;;;;;;46.95;27.52;;;;;;;13.84;87.89;97541.53;4893664;29;20037;-72
2023/08/30 05:50:02;;;;;;;72.72;32.88;;;;;;;13.75;87.77;97516.16;4896585;29;20020;-72
2023/08/30 05:52:27;;;;;;;85.45;35.20;;;;;;;13.92;87.66;97545.56;4888686;29;20069;-72
2023/08/30 05:54:53;;;;;;;115.32;39.38;;;;;;;13.81;88.19;97534.81;4893554;29;20033;-73
2023/08/30 05:57:18;;;;;;;123.03;38.47;;;;;;;13.81;88.21;97532.09;4892752;29;20045;-71
2023/08/30 05:59:44;;;;;;;105.82;36.72;;;;;;;13.88;88.01;97548.81;4892464;29;20029;-72
2023/08/30 06:02:10;;;;;;;98.75;36.20;;;;;;;13.90;88.43;97555.84;4860472;29;20130;-72
2023/08/30 06:04:35;;;;;;;71.38;32.63;;;;;;;13.90;88.57;97555.84;4877264;29;20029;-72
2023/08/30 06:07:01;;;;;;;69.88;33.00;;;;;;;13.83;88.74;97551.59;4891254;29;20406;-72
2023/08/30 06:09:26;;;;;;;60.15;30.20;;;;;;;13.83;88.60;97539.94;4877029;29;20035;-72
2023/08/30 06:11:51;;;;;;;54.92;29.13;;;;;;;13.84;88.67;97531.53;4876348;29;20040;-73
2023/08/30 06:14:17;;;;;;;51.80;27.38;;;;;;;13.97;88.59;97540.09;4876972;29;20074;-72
2023/08/30 06:16:44;;;;;;;62.95;30.30;;;;;;;14.08;88.17;97547.06;4878934;29;20392;-72
2023/08/30 06:19:13;;;;;;;60.15;28.58;;;;;;;14.18;88.40;97552.41;4893106;29;20068;-73
2023/08/30 06:21:38;;;;;;;49.30;26.40;;;;;;;14.17;88.42;97550.78;4893150;29;20142;-75
2023/08/30 06:24:04;;;;;;;51.40;26.88;;;;;;;14.18;88.88;97546.97;4878355;29;20193;-73
2023/08/30 06:26:29;;;;;;;59.83;30.13;;;;;;;14.29;88.73;97557.44;4893140;29;20033;-72
2023/08/30 06:28:54;;;;;;;72.60;32.72;;;;;;;14.30;88.37;97550.19;4892659;29;20032;-72
2023/08/30 06:31:20;;;;;;;68.68;31.00;;;;;;;14.31;88.69;97557.19;4878479;29;20048;-73
2023/08/30 06:33:45;;;;;;;63.15;32.20;;;;;;;14.35;88.36;97558.25;4861560;29;20119;-74
2023/08/30 06:36:15;;;;;;;75.28;34.92;;;;;;;14.28;88.48;97544.19;4877485;29;20477;-72
2023/08/30 06:38:42;;;;;;;62.17;31.13;;;;;;;14.32;88.46;97542.56;4892953;29;20064;-73
2023/08/30 06:41:07;;;;;;;66.50;34.78;;;;;;;14.41;88.56;97554.41;4878358;29;20412;-73
2023/08/30 06:43:32;;;;;;;74.10;36.13;;;;;;;14.47;88.67;97559.50;4878633;29;20045;-73
2023/08/30 06:45:59;;;;;;;67.90;32.90;;;;;;;14.45;88.32;97548.13;4893128;29;20025;-73
2023/08/30 06:48:24;;;;;;;60.30;33.15;;;;;;;14.52;88.61;97558.63;4892811;29;20040;-73
2023/08/30 06:50:50;;;;;;;63.72;34.55;;;;;;;14.63;88.47;97552.03;4888160;29;20448;-73
2023/08/30 06:53:15;;;;;;;68.90;35.38;;;;;;;14.70;88.14;97559.84;4880446;29;20041;-72
2023/08/30 06:55:41;;;;;;;73.43;37.20;;;;;;;14.62;88.22;97534.16;4878195;29;20029;-72
2023/08/30 06:58:06;;;;;;;65.28;36.03;;;;;;;14.75;88.27;97552.44;4865769;29;20037;-72
2023/08/30 07:00:31;;;;;;;58.20;34.58;;;;;;;14.79;88.03;97541.84;4892491;29;20420;-73
2023/08/30 07:02:57;;;;;;;65.15;35.00;;;;;;;14.88;88.53;97556.38;4892080;29;20117;-72
2023/08/30 07:05:23;;;;;;;70.25;36.08;;;;;;;14.92;88.23;97560.94;4878136;29;20371;-72
2023/08/30 07:07:48;;;;;;;60.05;34.13;;;;;;;14.86;88.66;97559.41;4879899;29;20038;-72
2023/08/30 07:10:13;;;;;;;56.47;34.25;;;;;;;14.91;88.66;97556.59;4892341;29;20035;-72
2023/08/30 07:12:39;;;;;;;63.33;35.72;;;;;;;14.94;88.54;97545.19;4877916;29;20148;-72
2023/08/30 07:15:05;;;;;;;56.83;32.80;;;;;;;15.09;88.14;97542.31;4892245;29;20032;-72
2023/08/30 07:17:30;;;;;;;52.28;33.35;;;;;;;15.13;88.00;97532.50;4879748;29;20041;-72
2023/08/30 07:19:55;;;;;;;45.28;30.20;;;;;;;15.11;88.27;97529.28;4892067;29;20031;-72
2023/08/30 07:22:21;;;;;;;49.55;30.90;;;;;;;15.23;87.72;97540.53;4876201;29;20554;-72
2023/08/30 07:24:47;;;;;;;43.05;29.17;;;;;;;15.22;87.93;97536.19;4881102;29;20025;-72
2023/08/30 07:27:12;;;;;;;42.10;28.38;;;;;;;15.34;87.43;97522.19;4877687;29;20044;-73
2023/08/30 07:29:39;;;;;;;37.38;27.95;;;;;;;15.34;87.68;97515.97;4877685;29;20036;-73
2023/08/30 07:32:05;;;;;;;39.03;27.33;;;;;;;15.58;87.27;97528.44;4877317;29;20109;-72
2023/08/30 07:34:30;;;;;;;36.28;25.88;;;;;;;15.69;86.70;97534.50;4869506;29;20484;-72
2023/08/30 07:36:56;;;;;;;36.50;26.33;;;;;;;15.77;86.26;97526.53;4873065;29;20436;-72
2023/08/30 07:39:21;;;;;;;30.67;23.50;;;;;;;15.87;86.02;97528.25;4883868;29;20026;-71
2023/08/30 07:41:47;;;;;;;30.40;24.02;;;;;;;16.08;85.49;97540.44;4872897;29;20494;-73
2023/08/30 07:44:12;;;;;;;26.00;22.17;;;;;;;16.16;85.20;97545.22;4891133;29;20036;-72
2023/08/30 07:46:37;;;;;;;27.80;22.02;;;;;;;16.18;84.96;97543.00;4877458;29;20060;-73
2023/08/30 07:49:03;;;;;;;28.42;22.30;;;;;;;16.05;84.60;97527.47;4891905;29;20112;-73
2023/08/30 07:51:28;;;;;;;33.92;23.88;;;;;;;16.10;84.83;97543.69;4889784;29;20506;-74
2023/08/30 07:53:53;;;;;;;35.03;25.02;;;;;;;16.05;84.90;97543.75;4877100;29;20048;-74
2023/08/30 07:56:19;;;;;;;32.67;23.83;;;;;;;16.00;85.04;97540.31;4876093;29;20496;-73
2023/08/30 07:58:44;;;;;;;28.77;22.55;;;;;;;16.04;84.43;97542.13;4891735;29;20029;-73
2023/08/30 08:01:10;;;;;;;28.27;22.48;;;;;;;16.06;84.63;97529.06;4891510;29;20045;-74
2023/08/30 08:03:35;;;;;;;29.70;22.88;;;;;;;16.17;83.92;97522.38;4877564;29;20028;-73
2023/08/30 08:06:00;;;;;;;28.17;21.75;;;;;;;16.29;83.57;97543.66;4877297;29;20041;-74
2023/08/30 08:08:26;;;;;;;26.08;22.13;;;;;;;16.33;83.49;97544.69;4891547;29;20120;-73
2023/08/30 08:10:51;;;;;;;25.45;20.98;;;;;;;16.52;83.16;97540.81;4891798;29;20044;-72
2023/08/30 08:13:17;;;;;;;26.00;19.88;;;;;;;16.69;82.58;97547.59;4876904;29;20157;-73
2023/08/30 08:15:43;;;;;;;24.92;20.38;;;;;;;16.67;82.55;97545.19;4891449;29;20041;-72
2023/08/30 08:18:09;;;;;;;25.67;20.38;;;;;;;16.56;82.22;97541.84;4891723;29;20522;-73
2023/08/30 08:20:34;;;;;;;25.73;20.67;;;;;;;16.64;82.25;97550.44;4891482;29;20037;-72
2023/08/30 08:23:00;;;;;;;26.10;20.05;;;;;;;16.73;82.19;97549.44;4891240;29;20029;-72
2023/08/30 08:25:25;;;;;;;24.73;19.55;;;;;;;16.71;81.89;97529.09;4877244;29;20052;-73
2023/08/30 08:27:51;;;;;;;24.70;20.08;;;;;;;16.84;81.97;97544.63;4891565;29;20037;-73
2023/08/30 08:30:17;;;;;;;24.00;19.25;;;;;;;16.71;81.59;97518.22;4891343;29;20559;-73
2023/08/30 08:32:42;;;;;;;25.90;21.02;;;;;;;16.82;81.71;97544.13;4876744;29;20035;-72
2023/08/30 08:35:08;;;;;;;26.50;21.02;;;;;;;16.75;81.89;97530.09;4877138;29;20068;-72
2023/08/30 08:37:33;;;;;;;26.88;21.40;;;;;;;16.64;81.83;97542.28;4877144;29;20028;-73
2023/08/30 08:39:59;;;;;;;27.65;22.98;;;;;;;16.24;82.50;97525.50;4891265;29;20037;-72
2023/08/30 08:42:24;;;;;;;26.30;20.98;;;;;;;16.52;82.44;97538.09;4876754;29;20024;-73
2023/08/30 08:44:54;;;;;;;25.35;20.75;;;;;;;16.59;82.19;97527.66;4891163;29;20052;-73
2023/08/30 08:47:20;;;;;;;25.90;21.05;;;;;;;16.60;82.09;97528.47;4891336;29;20407;-73
2023/08/30 08:49:47;;;;;;;23.25;19.95;;;;;;;16.99;81.56;97533.47;4892097;29;20642;-73
2023/08/30 08:52:14;;;;;;;23.50;19.33;;;;;;;17.10;81.34;97522.06;4886908;29;20036;-71
2023/08/30 08:54:40;;;;;;;25.27;19.35;;;;;;;17.22;80.71;97529.72;4893067;29;20033;-72
2023/08/30 08:57:07;;;;;;;24.50;20.08;;;;;;;16.94;80.12;97514.50;4879184;29;20044;-73
2023/08/30 08:59:32;;;;;;;24.08;19.98;;;;;;;17.16;80.08;97539.09;4894645;29;20036;-73
2023/08/30 09:01:59;;;;;;;24.67;18.70;;;;;;;17.33;79.82;97533.03;4880065;29;20049;-73
2023/08/30 09:04:25;;;;;;;22.30;17.40;;;;;;;17.30;79.14;97537.16;4894450;29;20025;-73
2023/08/30 09:06:51;;;;;;;23.83;17.95;;;;;;;17.26;79.18;97531.53;4880091;29;20045;-72
2023/08/30 09:09:16;;;;;;;21.77;17.50;;;;;;;17.33;78.94;97541.19;4894359;29;20108;-72
2023/08/30 09:11:42;;;;;;;19.33;15.27;;;;;;;17.44;78.78;97535.25;4879747;29;20049;-72
2023/08/30 09:14:08;;;;;;;18.15;15.70;;;;;;;17.58;77.93;97543.41;4879842;29;20033;-72
2023/08/30 09:16:34;;;;;;;17.45;14.77;;;;;;;17.69;77.54;97540.16;4880087;29;20128;-73
2023/08/30 09:19:03;;;;;;;17.33;14.73;;;;;;;18.03;76.83;97528.78;4879908;29;20039;-72
2023/08/30 09:21:29;;;;;;;16.77;13.32;;;;;;;18.02;76.64;97526.38;4894142;29;20041;-72
2023/08/30 09:24:02;;;;;;;16.10;13.40;;;;;;;18.07;75.88;97523.50;4878602;29;20528;-73
2023/08/30 09:26:31;;;;;;;16.92;13.15;;;;;;;18.06;75.68;97521.91;4863092;29;20522;-73
2023/08/30 09:29:01;;;;;;;15.82;11.93;;;;;;;18.13;75.78;97522.28;4879656;29;20044;-73
2023/08/30 09:31:40;;;;;;;15.98;11.68;;;;;;;17.91;75.25;97512.97;4879506;29;20051;-73
2023/08/30 09:34:05;;;;;;;14.15;12.23;;;;;;;18.09;75.23;97526.72;4876724;29;20045;-73
2023/08/30 09:36:34;;;;;;;12.77;11.52;;;;;;;18.17;74.42;97531.44;4877920;29;20029;-73
2023/08/30 09:39:03;;;;;;;14.15;11.35;;;;;;;18.19;73.43;97526.50;4878759;29;20580;-73
2023/08/30 09:41:29;;;;;;;12.65;10.90;;;;;;;18.28;72.81;97521.91;4897717;29;20491;-73
2023/08/30 09:43:54;;;;;;;14.00;11.27;;;;;;;18.45;71.96;97522.03;4898240;29;20061;-73
2023/08/30 09:46:19;;;;;;;13.88;9.73;;;;;;;18.69;71.47;97519.81;4879696;29;20476;-72
2023/08/30 09:48:45;;;;;;;12.10;10.07;;;;;;;18.72;70.87;97519.16;4893696;29;20052;-73
2023/08/30 09:51:11;;;;;;;9.27;8.35;;;;;;;18.99;70.62;97508.06;4890864;29;20031;-73
2023/08/30 09:53:42;;;;;;;8.95;8.05;;;;;;;19.22;69.50;97515.06;4863056;29;20041;-73
2023/08/30 09:56:09;;;;;;;10.25;8.95;;;;;;;19.14;69.37;97501.34;4893536;29;20043;-72
2023/08/30 09:58:34;;;;;;;9.15;8.35;;;;;;;19.27;68.61;97508.63;4893497;29;20076;-73
2023/08/30 10:01:02;;;;;;;10.57;7.00;;;;;;;19.25;67.86;97498.00;4878987;29;20033;-73
2023/08/30 10:03:29;;;;;;;7.57;6.88;;;;;;;19.35;67.56;97499.66;4878964;29;20060;-74
2023/08/30 10:05:54;;;;;;;7.03;6.38;;;;;;;19.48;66.88;97497.94;4878468;29;20033;-72
2023/08/30 10:08:20;;;;;;;7.75;5.78;;;;;;;19.68;66.41;97497.31;4879097;29;20506;-73
2023/08/30 10:10:45;;;;;;;8.20;5.68;;;;;;;19.82;66.43;97492.53;4880908;29;20108;-71
2023/08/30 10:13:11;;;;;;;7.05;5.80;;;;;;;20.09;65.65;97497.69;4878709;29;20073;-71
2023/08/30 10:15:47;;;;;;;8.13;5.90;;;;;;;20.10;64.15;97493.81;4865049;29;20118;-74
2023/08/30 10:18:15;;;;;;;5.65;4.78;;;;;;;19.91;64.67;97491.41;4878929;29;20149;-71
2023/08/30 10:20:41;;;;;;;4.63;4.15;;;;;;;19.75;64.57;97481.25;4893076;29;20029;-73
2023/08/30 10:23:08;;;;;;;5.60;4.65;;;;;;;19.54;63.27;97474.81;4893056;29;20056;-73
2023/08/30 10:25:34;;;;;;;8.05;5.90;;;;;;;19.37;62.91;97472.06;4880645;29;20055;-72
2023/08/30 10:28:00;;;;;;;6.78;5.22;;;;;;;19.49;62.77;97483.97;4893065;29;20056;-71
2023/08/30 10:30:26;;;;;;;5.28;4.28;;;;;;;19.64;61.78;97480.78;4880346;29;20038;-71
2023/08/30 10:32:51;;;;;;;5.78;5.18;;;;;;;19.79;61.81;97477.56;4892720;29;20511;-71
2023/08/30 10:35:18;;;;;;;6.13;5.53;;;;;;;19.80;61.85;97481.09;4866013;29;20116;-72
2023/08/30 10:37:54;;;;;;;7.43;6.03;;;;;;;20.03;61.80;97479.81;4892890;29;20037;-72
2023/08/30 10:40:21;;;;;;;6.95;5.75;;;;;;;20.08;61.25;97460.53;4864628;29;20127;-71
2023/08/30 10:42:47;;;;;;;7.43;5.72;;;;;;;20.12;61.33;97477.88;4867363;29;20117;-73
2023/08/30 10:45:12;;;;;;;6.47;5.13;;;;;;;20.05;62.55;97485.75;4889906;29;20144;-71
2023/08/30 10:47:38;;;;;;;5.90;5.32;;;;;;;20.09;61.82;97484.00;4878481;29;20037;-71
2023/08/30 10:50:09;;;;;;;6.85;5.70;;;;;;;20.23;61.68;97476.47;4882269;29;20037;-72
2023/08/30 10:52:35;;;;;;;8.70;5.75;;;;;;;20.41;61.99;97479.97;4878275;29;20123;-73
2023/08/30 10:55:12;;;;;;;7.70;5.82;;;;;;;20.37;62.42;97474.34;4876854;29;20124;-72
2023/08/30 10:57:38;;;;;;;7.00;5.75;;;;;;;20.43;62.46;97470.31;4877037;29;20097;-72
2023/08/30 11:00:05;;;;;;;6.45;5.72;;;;;;;20.53;62.01;97464.50;4878197;29;20680;-71
2023/08/30 11:02:31;;;;;;;6.57;5.43;;;;;;;20.60;61.37;97463.97;4876904;29;20050;-73
2023/08/30 11:05:00;;;;;;;7.50;5.68;;;;;;;20.62;60.63;97465.28;4887329;29;20037;-71
2023/08/30 11:07:26;;;;;;;7.22;5.65;;;;;;;20.62;60.73;97443.38;4885739;29;20036;-72
2023/08/30 11:09:52;;;;;;;4.93;4.53;;;;;;;20.46;60.17;97444.22;4880017;29;20052;-71
2023/08/30 11:12:18;;;;;;;4.93;4.50;;;;;;;20.79;58.91;97458.13;4880395;29;20060;-72
2023/08/30 11:14:43;;;;;;;5.47;4.93;;;;;;;20.75;59.34;97454.44;4877156;29;20029;-71
2023/08/30 11:17:12;;;;;;;6.57;5.00;;;;;;;20.46;60.04;97441.50;4877593;29;20657;-72
2023/08/30 11:19:37;;;;;;;7.18;5.10;;;;;;;20.35;60.11;97446.50;4879812;29;20036;-72
2023/08/30 11:22:03;;;;;;;6.28;4.95;;;;;;;20.49;59.96;97440.84;4877839;29;20045;-73
2023/08/30 11:24:28;;;;;;;5.18;4.68;;;;;;;20.13;59.00;97422.06;4891941;29;20017;-73